VJC643 VVDN-VVTS
Flight info
| Callsign | VJC643 |
|---|---|
| Flight time | 1h 3m |
| Altitude | 40000 |
| Route | SADIN1G SADIN Q1 DOVIN DOVIN5D |
| Aircraft | A333/H-SDE3GHIJ2J3J5M1RVWXY/LB2D1 |
Departure
| Time | 2026-04-21 15:06 |
|---|---|
| Airport | Da Nang International Airport (VVDN) |
Arrival
| Time | 2026-04-21 16:10 |
|---|---|
| Airport | Tan Son Nhat International Airport (VVTS) |
| Time | Latitude | Longitude | Altitude | Speed | Heading |
|---|---|---|---|---|---|
| 2026-04-21 14:43 | 16.05367 | 108.20165 | 38 ft | 0 kts | 84° |
| 2026-04-21 14:53 | 16.05366 | 108.20140 | 37 ft | 4 kts | 91° |
| 2026-04-21 14:54 | 16.05368 | 108.20112 | 37 ft | 4 kts | 101° |
| 2026-04-21 14:54 | 16.05375 | 108.20085 | 37 ft | 4 kts | 111° |
| 2026-04-21 14:54 | 16.05386 | 108.20059 | 38 ft | 4 kts | 112° |
| 2026-04-21 14:54 | 16.05392 | 108.20039 | 38 ft | 1 kts | 88° |
| 2026-04-21 14:57 | 16.05382 | 108.20053 | 38 ft | 4 kts | 137° |
| 2026-04-21 14:57 | 16.05353 | 108.20051 | 38 ft | 5 kts | 190° |
| 2026-04-21 14:58 | 16.05313 | 108.20050 | 38 ft | 7 kts | 176° |
| 2026-04-21 14:58 | 16.05261 | 108.20056 | 38 ft | 8 kts | 172° |
| 2026-04-21 14:58 | 16.05185 | 108.20067 | 38 ft | 13 kts | 172° |
| 2026-04-21 14:58 | 16.05081 | 108.20082 | 38 ft | 16 kts | 172° |
| 2026-04-21 14:59 | 16.04964 | 108.20099 | 37 ft | 18 kts | 172° |
| 2026-04-21 14:59 | 16.04835 | 108.20118 | 37 ft | 19 kts | 172° |
| 2026-04-21 14:59 | 16.04701 | 108.20138 | 37 ft | 20 kts | 172° |
| 2026-04-21 14:59 | 16.04557 | 108.20159 | 37 ft | 21 kts | 172° |
| 2026-04-21 15:00 | 16.04405 | 108.20180 | 37 ft | 22 kts | 172° |
| 2026-04-21 15:00 | 16.04248 | 108.20202 | 38 ft | 23 kts | 172° |
| 2026-04-21 15:00 | 16.04088 | 108.20226 | 38 ft | 24 kts | 172° |
| 2026-04-21 15:00 | 16.03921 | 108.20250 | 38 ft | 24 kts | 172° |
| 2026-04-21 15:01 | 16.03806 | 108.20267 | 38 ft | 15 kts | 172° |
| 2026-04-21 15:01 | 16.03695 | 108.20283 | 38 ft | 17 kts | 172° |
| 2026-04-21 15:01 | 16.03575 | 108.20301 | 38 ft | 18 kts | 172° |
| 2026-04-21 15:01 | 16.03445 | 108.20318 | 38 ft | 20 kts | 172° |
| 2026-04-21 15:02 | 16.03305 | 108.20338 | 37 ft | 21 kts | 172° |
| 2026-04-21 15:02 | 16.03155 | 108.20361 | 37 ft | 22 kts | 171° |
| 2026-04-21 15:02 | 16.03065 | 108.20373 | 37 ft | 10 kts | 171° |
| 2026-04-21 15:02 | 16.02991 | 108.20379 | 37 ft | 11 kts | 189° |
| 2026-04-21 15:03 | 16.02934 | 108.20337 | 36 ft | 0 kts | 235° |
| 2026-04-21 15:03 | 16.02923 | 108.20303 | 35 ft | 10 kts | 265° |
| 2026-04-21 15:03 | 16.02965 | 108.20251 | 35 ft | 10 kts | 340° |
| 2026-04-21 15:04 | 16.03000 | 108.20244 | 35 ft | 0 kts | 352° |
| 2026-04-21 15:05 | 16.03164 | 108.20220 | 35 ft | 57 kts | 352° |
| 2026-04-21 15:05 | 16.03768 | 108.20132 | 39 ft | 118 kts | 352° |
| 2026-04-21 15:06 | 16.04760 | 108.19991 | 155 ft | 160 kts | 354° |
| 2026-04-21 15:06 | 16.05864 | 108.19850 | 832 ft | 160 kts | 354° |
| 2026-04-21 15:06 | 16.06982 | 108.19718 | 1448 ft | 162 kts | 355° |
| 2026-04-21 15:06 | 16.08159 | 108.19616 | 1727 ft | 181 kts | 356° |
| 2026-04-21 15:07 | 16.09500 | 108.19584 | 1999 ft | 204 kts | 2° |
| 2026-04-21 15:07 | 16.10995 | 108.19682 | 2274 ft | 226 kts | 4° |
| 2026-04-21 15:07 | 16.12663 | 108.19684 | 2499 ft | 251 kts | 358° |
| 2026-04-21 15:07 | 16.14462 | 108.19615 | 2852 ft | 265 kts | 358° |
| 2026-04-21 15:08 | 16.16337 | 108.19598 | 3405 ft | 271 kts | 7° |
| 2026-04-21 15:08 | 16.18056 | 108.20333 | 3924 ft | 276 kts | 40° |
| 2026-04-21 15:08 | 16.19124 | 108.21958 | 4535 ft | 275 kts | 75° |
| 2026-04-21 15:08 | 16.19166 | 108.23928 | 5140 ft | 275 kts | 105° |
| 2026-04-21 15:09 | 16.18624 | 108.25843 | 5787 ft | 277 kts | 107° |
| 2026-04-21 15:09 | 16.18182 | 108.27817 | 6408 ft | 282 kts | 101° |
| 2026-04-21 15:09 | 16.17919 | 108.29851 | 6991 ft | 285 kts | 96° |
| 2026-04-21 15:09 | 16.17786 | 108.31914 | 7577 ft | 287 kts | 93° |
| 2026-04-21 15:10 | 16.17715 | 108.33996 | 7899 ft | 288 kts | 94° |
| 2026-04-21 15:10 | 16.17327 | 108.36035 | 7974 ft | 288 kts | 113° |
| 2026-04-21 15:10 | 16.16191 | 108.37722 | 7984 ft | 286 kts | 140° |
| 2026-04-21 15:10 | 16.14457 | 108.38695 | 7985 ft | 285 kts | 166° |
| 2026-04-21 15:11 | 16.12487 | 108.38928 | 7985 ft | 286 kts | 179° |
| 2026-04-21 15:11 | 16.10497 | 108.38949 | 7991 ft | 286 kts | 180° |
| 2026-04-21 15:11 | 16.08524 | 108.38946 | 8006 ft | 286 kts | 180° |
| 2026-04-21 15:11 | 16.06525 | 108.38950 | 8299 ft | 288 kts | 180° |
| 2026-04-21 15:12 | 16.04502 | 108.38964 | 8905 ft | 292 kts | 180° |
| 2026-04-21 15:12 | 16.02465 | 108.38982 | 9608 ft | 293 kts | 179° |
| 2026-04-21 15:12 | 16.00406 | 108.39003 | 10156 ft | 300 kts | 179° |
| 2026-04-21 15:12 | 15.98256 | 108.39028 | 10417 ft | 317 kts | 179° |
| 2026-04-21 15:13 | 15.95995 | 108.39056 | 10647 ft | 333 kts | 179° |
| 2026-04-21 15:13 | 15.93660 | 108.39088 | 10938 ft | 345 kts | 179° |
| 2026-04-21 15:13 | 15.91234 | 108.39123 | 11396 ft | 350 kts | 180° |
| 2026-04-21 15:13 | 15.88785 | 108.39155 | 11928 ft | 355 kts | 180° |
| 2026-04-21 15:14 | 15.86303 | 108.39187 | 12464 ft | 358 kts | 180° |
| 2026-04-21 15:14 | 15.83790 | 108.39218 | 13031 ft | 361 kts | 180° |
| 2026-04-21 15:14 | 15.81269 | 108.39250 | 13572 ft | 364 kts | 180° |
| 2026-04-21 15:14 | 15.78722 | 108.39281 | 14063 ft | 367 kts | 180° |
| 2026-04-21 15:15 | 15.76155 | 108.39312 | 14528 ft | 370 kts | 180° |
| 2026-04-21 15:15 | 15.73567 | 108.39343 | 14988 ft | 373 kts | 180° |
| 2026-04-21 15:15 | 15.70957 | 108.39376 | 15425 ft | 377 kts | 180° |
| 2026-04-21 15:15 | 15.68357 | 108.39412 | 15893 ft | 380 kts | 179° |
| 2026-04-21 15:16 | 15.65704 | 108.39449 | 16345 ft | 382 kts | 180° |
| 2026-04-21 15:16 | 15.63028 | 108.39485 | 16784 ft | 385 kts | 180° |
| 2026-04-21 15:16 | 15.60339 | 108.39520 | 17210 ft | 389 kts | 180° |
| 2026-04-21 15:16 | 15.57631 | 108.39550 | 17683 ft | 391 kts | 181° |
| 2026-04-21 15:17 | 15.54903 | 108.39361 | 18115 ft | 394 kts | 190° |
| 2026-04-21 15:17 | 15.52263 | 108.38598 | 18544 ft | 395 kts | 202° |
| 2026-04-21 15:17 | 15.49760 | 108.37488 | 18932 ft | 397 kts | 205° |
| 2026-04-21 15:17 | 15.47245 | 108.36290 | 19292 ft | 400 kts | 205° |
| 2026-04-21 15:18 | 15.44706 | 108.35072 | 19640 ft | 402 kts | 205° |
| 2026-04-21 15:18 | 15.42141 | 108.33847 | 19999 ft | 405 kts | 205° |
| 2026-04-21 15:18 | 15.39571 | 108.32623 | 20329 ft | 408 kts | 205° |
| 2026-04-21 15:18 | 15.36982 | 108.31390 | 20717 ft | 411 kts | 205° |
| 2026-04-21 15:19 | 15.34376 | 108.30158 | 21078 ft | 413 kts | 205° |
| 2026-04-21 15:19 | 15.31751 | 108.28918 | 21424 ft | 415 kts | 205° |
| 2026-04-21 15:19 | 15.29114 | 108.27677 | 21763 ft | 418 kts | 205° |
| 2026-04-21 15:19 | 15.26459 | 108.26424 | 22070 ft | 421 kts | 205° |
| 2026-04-21 15:20 | 15.23818 | 108.25178 | 22389 ft | 423 kts | 204° |
| 2026-04-21 15:20 | 15.21131 | 108.23916 | 22671 ft | 427 kts | 205° |
| 2026-04-21 15:20 | 15.18412 | 108.22638 | 22944 ft | 429 kts | 205° |
| 2026-04-21 15:20 | 15.15682 | 108.21351 | 23292 ft | 432 kts | 205° |
| 2026-04-21 15:21 | 15.12946 | 108.20060 | 23609 ft | 433 kts | 205° |
| 2026-04-21 15:21 | 15.10164 | 108.18813 | 23859 ft | 436 kts | 200° |
| 2026-04-21 15:21 | 15.07246 | 108.17949 | 24140 ft | 437 kts | 190° |
| 2026-04-21 15:21 | 15.04219 | 108.17616 | 24380 ft | 440 kts | 182° |
| 2026-04-21 15:22 | 15.01144 | 108.17524 | 24649 ft | 441 kts | 181° |
| 2026-04-21 15:22 | 14.98068 | 108.17470 | 24896 ft | 443 kts | 181° |
| 2026-04-21 15:22 | 14.94971 | 108.17414 | 25138 ft | 445 kts | 181° |
| 2026-04-21 15:22 | 14.91911 | 108.17351 | 25391 ft | 447 kts | 181° |
| 2026-04-21 15:23 | 14.88759 | 108.17287 | 25638 ft | 449 kts | 181° |
| 2026-04-21 15:23 | 14.85657 | 108.17223 | 25841 ft | 452 kts | 181° |
| 2026-04-21 15:23 | 14.82499 | 108.17157 | 26115 ft | 453 kts | 180° |
| 2026-04-21 15:23 | 14.79339 | 108.17088 | 26357 ft | 454 kts | 181° |
| 2026-04-21 15:24 | 14.76158 | 108.17016 | 26601 ft | 457 kts | 181° |
| 2026-04-21 15:24 | 14.73002 | 108.16945 | 26861 ft | 459 kts | 181° |
| 2026-04-21 15:24 | 14.69807 | 108.16873 | 27112 ft | 460 kts | 181° |
| 2026-04-21 15:24 | 14.66602 | 108.16804 | 27316 ft | 462 kts | 181° |
| 2026-04-21 15:25 | 14.63381 | 108.16734 | 27546 ft | 464 kts | 181° |
| 2026-04-21 15:25 | 14.60139 | 108.16664 | 27800 ft | 465 kts | 181° |
| 2026-04-21 15:25 | 14.56894 | 108.16592 | 28027 ft | 468 kts | 181° |
| 2026-04-21 15:25 | 14.53632 | 108.16522 | 28277 ft | 470 kts | 181° |
| 2026-04-21 15:26 | 14.50359 | 108.16451 | 28535 ft | 471 kts | 181° |
| 2026-04-21 15:26 | 14.47075 | 108.16378 | 28796 ft | 473 kts | 181° |
| 2026-04-21 15:26 | 14.43776 | 108.16302 | 29028 ft | 475 kts | 181° |
| 2026-04-21 15:26 | 14.40458 | 108.16230 | 29280 ft | 477 kts | 181° |
| 2026-04-21 15:27 | 14.37167 | 108.16157 | 29553 ft | 479 kts | 181° |
| 2026-04-21 15:27 | 14.33829 | 108.16083 | 29774 ft | 480 kts | 181° |
| 2026-04-21 15:27 | 14.30474 | 108.16009 | 29977 ft | 482 kts | 181° |
| 2026-04-21 15:27 | 14.27109 | 108.15936 | 30166 ft | 485 kts | 181° |
| 2026-04-21 15:28 | 14.23723 | 108.15861 | 30364 ft | 487 kts | 181° |
| 2026-04-21 15:28 | 14.21479 | 108.15807 | 30515 ft | 487 kts | 181° |
| 2026-04-21 15:28 | 14.18083 | 108.15730 | 30718 ft | 489 kts | 180° |
| 2026-04-21 15:28 | 14.14663 | 108.15656 | 30917 ft | 491 kts | 181° |
| 2026-04-21 15:29 | 14.11248 | 108.15582 | 31109 ft | 493 kts | 181° |
| 2026-04-21 15:29 | 14.07798 | 108.15509 | 31298 ft | 494 kts | 181° |
| 2026-04-21 15:29 | 14.04369 | 108.15438 | 31760 ft | 489 kts | 181° |
| 2026-04-21 15:29 | 14.00997 | 108.15376 | 32441 ft | 479 kts | 181° |
| 2026-04-21 15:30 | 13.97687 | 108.15319 | 33032 ft | 472 kts | 181° |
| 2026-04-21 15:30 | 13.94383 | 108.15247 | 33203 ft | 477 kts | 181° |
| 2026-04-21 15:30 | 13.91047 | 108.15169 | 33333 ft | 482 kts | 181° |
| 2026-04-21 15:30 | 13.87673 | 108.15092 | 33466 ft | 487 kts | 181° |
| 2026-04-21 15:31 | 13.84341 | 108.15011 | 33921 ft | 483 kts | 181° |
| 2026-04-21 15:31 | 13.80968 | 108.14933 | 34095 ft | 487 kts | 181° |
| 2026-04-21 15:31 | 13.77563 | 108.14861 | 34204 ft | 491 kts | 181° |
| 2026-04-21 15:31 | 13.74124 | 108.14787 | 34313 ft | 496 kts | 181° |
| 2026-04-21 15:32 | 13.70663 | 108.14714 | 34537 ft | 498 kts | 181° |
| 2026-04-21 15:32 | 13.67199 | 108.14638 | 34840 ft | 498 kts | 181° |
| 2026-04-21 15:32 | 13.63732 | 108.14560 | 35136 ft | 496 kts | 181° |
| 2026-04-21 15:32 | 13.60319 | 108.14484 | 35466 ft | 496 kts | 181° |
| 2026-04-21 15:33 | 13.56865 | 108.14408 | 35815 ft | 495 kts | 181° |
| 2026-04-21 15:33 | 13.53419 | 108.14334 | 36163 ft | 495 kts | 181° |
| 2026-04-21 15:33 | 13.49987 | 108.14260 | 36525 ft | 492 kts | 181° |
| 2026-04-21 15:33 | 13.46549 | 108.14186 | 36924 ft | 493 kts | 180° |
| 2026-04-21 15:34 | 13.43129 | 108.14120 | 37412 ft | 489 kts | 181° |
| 2026-04-21 15:34 | 13.39733 | 108.14044 | 37750 ft | 487 kts | 181° |
| 2026-04-21 15:34 | 13.36344 | 108.13966 | 38019 ft | 486 kts | 181° |
| 2026-04-21 15:34 | 13.32967 | 108.13892 | 38254 ft | 486 kts | 181° |
| 2026-04-21 15:35 | 13.29569 | 108.13812 | 38527 ft | 486 kts | 181° |
| 2026-04-21 15:35 | 13.26239 | 108.13738 | 38746 ft | 483 kts | 180° |
| 2026-04-21 15:35 | 13.22862 | 108.13661 | 38906 ft | 484 kts | 181° |
| 2026-04-21 15:35 | 13.19494 | 108.13592 | 39168 ft | 482 kts | 181° |
| 2026-04-21 15:36 | 13.16136 | 108.13512 | 39533 ft | 478 kts | 181° |
| 2026-04-21 15:36 | 13.12810 | 108.13440 | 39844 ft | 475 kts | 180° |
| 2026-04-21 15:36 | 13.06177 | 108.13290 | 39912 ft | 480 kts | 181° |
| 2026-04-21 15:37 | 12.99568 | 108.13144 | 39905 ft | 477 kts | 180° |
| 2026-04-21 15:37 | 12.92922 | 108.13007 | 39907 ft | 478 kts | 181° |
| 2026-04-21 15:38 | 12.86252 | 108.12863 | 39908 ft | 477 kts | 181° |
| 2026-04-21 15:38 | 12.79586 | 108.12713 | 39905 ft | 478 kts | 180° |
| 2026-04-21 15:39 | 12.72981 | 108.12572 | 39907 ft | 477 kts | 180° |
| 2026-04-21 15:39 | 12.66331 | 108.12428 | 39910 ft | 477 kts | 180° |
| 2026-04-21 15:40 | 12.59683 | 108.12284 | 39911 ft | 477 kts | 180° |
| 2026-04-21 15:40 | 12.53083 | 108.12140 | 39916 ft | 477 kts | 180° |
| 2026-04-21 15:41 | 12.46443 | 108.11995 | 39917 ft | 476 kts | 181° |
| 2026-04-21 15:41 | 12.39825 | 108.11851 | 39921 ft | 474 kts | 181° |
| 2026-04-21 15:42 | 12.36528 | 108.11779 | 39735 ft | 473 kts | 181° |
| 2026-04-21 15:42 | 12.33232 | 108.11707 | 39270 ft | 473 kts | 180° |
| 2026-04-21 15:42 | 12.29938 | 108.11636 | 38791 ft | 473 kts | 180° |
| 2026-04-21 15:42 | 12.26641 | 108.11564 | 38212 ft | 474 kts | 180° |
| 2026-04-21 15:43 | 12.23375 | 108.11492 | 37577 ft | 475 kts | 180° |
| 2026-04-21 15:43 | 12.20058 | 108.11421 | 36957 ft | 477 kts | 180° |
| 2026-04-21 15:43 | 12.16733 | 108.11347 | 36339 ft | 478 kts | 180° |
| 2026-04-21 15:43 | 12.13403 | 108.11275 | 35762 ft | 479 kts | 180° |
| 2026-04-21 15:44 | 12.10075 | 108.11204 | 35167 ft | 480 kts | 180° |
| 2026-04-21 15:44 | 12.06723 | 108.11133 | 34523 ft | 481 kts | 180° |
| 2026-04-21 15:44 | 12.03367 | 108.11060 | 33849 ft | 484 kts | 180° |
| 2026-04-21 15:44 | 12.00023 | 108.10988 | 33166 ft | 487 kts | 180° |
| 2026-04-21 15:45 | 11.96629 | 108.10913 | 32505 ft | 488 kts | 180° |
| 2026-04-21 15:45 | 11.93240 | 108.10570 | 31790 ft | 490 kts | 192° |
| 2026-04-21 15:45 | 11.90037 | 108.09379 | 31170 ft | 491 kts | 208° |
| 2026-04-21 15:45 | 11.87208 | 108.07439 | 30653 ft | 489 kts | 218° |
| 2026-04-21 15:46 | 11.84552 | 108.05281 | 30173 ft | 485 kts | 219° |
| 2026-04-21 15:46 | 11.81933 | 108.03122 | 29616 ft | 480 kts | 219° |
| 2026-04-21 15:46 | 11.79354 | 108.01015 | 28859 ft | 471 kts | 219° |
| 2026-04-21 15:46 | 11.76824 | 107.98966 | 28055 ft | 468 kts | 218° |
| 2026-04-21 15:47 | 11.74273 | 107.96917 | 27447 ft | 464 kts | 218° |
| 2026-04-21 15:47 | 11.71748 | 107.94895 | 26869 ft | 458 kts | 218° |
| 2026-04-21 15:47 | 11.69254 | 107.92902 | 26282 ft | 454 kts | 218° |
| 2026-04-21 15:47 | 11.66776 | 107.90922 | 25730 ft | 450 kts | 218° |
| 2026-04-21 15:48 | 11.64327 | 107.88967 | 25103 ft | 444 kts | 218° |
| 2026-04-21 15:48 | 11.61906 | 107.87036 | 24529 ft | 441 kts | 218° |
| 2026-04-21 15:48 | 11.59501 | 107.85115 | 24013 ft | 436 kts | 218° |
| 2026-04-21 15:48 | 11.57113 | 107.83209 | 23484 ft | 433 kts | 218° |
| 2026-04-21 15:49 | 11.54743 | 107.81322 | 22884 ft | 429 kts | 218° |
| 2026-04-21 15:49 | 11.52399 | 107.79456 | 22356 ft | 425 kts | 218° |
| 2026-04-21 15:49 | 11.50110 | 107.77636 | 21828 ft | 419 kts | 218° |
| 2026-04-21 15:49 | 11.47819 | 107.75810 | 21274 ft | 416 kts | 218° |
| 2026-04-21 15:50 | 11.45554 | 107.74004 | 20746 ft | 411 kts | 218° |
| 2026-04-21 15:50 | 11.43306 | 107.72215 | 20157 ft | 408 kts | 218° |
| 2026-04-21 15:50 | 11.41081 | 107.70448 | 19632 ft | 404 kts | 218° |
| 2026-04-21 15:50 | 11.38874 | 107.68692 | 19157 ft | 398 kts | 218° |
| 2026-04-21 15:51 | 11.36711 | 107.66972 | 18658 ft | 393 kts | 218° |
| 2026-04-21 15:51 | 11.34558 | 107.65261 | 18143 ft | 389 kts | 218° |
| 2026-04-21 15:51 | 11.32435 | 107.63573 | 17541 ft | 385 kts | 218° |
| 2026-04-21 15:51 | 11.30321 | 107.61892 | 16933 ft | 383 kts | 218° |
| 2026-04-21 15:52 | 11.28244 | 107.60239 | 16158 ft | 377 kts | 218° |
| 2026-04-21 15:52 | 11.26184 | 107.58601 | 15232 ft | 374 kts | 218° |
| 2026-04-21 15:52 | 11.24128 | 107.56971 | 14539 ft | 375 kts | 218° |
| 2026-04-21 15:52 | 11.22102 | 107.55361 | 14043 ft | 370 kts | 218° |
| 2026-04-21 15:53 | 11.20084 | 107.53761 | 13476 ft | 366 kts | 218° |
| 2026-04-21 15:53 | 11.18074 | 107.52166 | 12894 ft | 365 kts | 217° |
| 2026-04-21 15:53 | 11.16075 | 107.50582 | 12331 ft | 362 kts | 218° |
| 2026-04-21 15:53 | 11.14100 | 107.49011 | 11785 ft | 361 kts | 217° |
| 2026-04-21 15:54 | 11.12151 | 107.47463 | 11506 ft | 345 kts | 217° |
| 2026-04-21 15:54 | 11.10314 | 107.46003 | 11191 ft | 324 kts | 217° |
| 2026-04-21 15:54 | 11.08578 | 107.44626 | 10740 ft | 312 kts | 217° |
| 2026-04-21 15:54 | 11.06869 | 107.43270 | 10330 ft | 310 kts | 217° |
| 2026-04-21 15:55 | 11.05182 | 107.41928 | 10019 ft | 306 kts | 217° |
| 2026-04-21 15:55 | 11.03507 | 107.40601 | 9786 ft | 304 kts | 217° |
| 2026-04-21 15:55 | 11.01955 | 107.39180 | 9547 ft | 304 kts | 230° |
| 2026-04-21 15:55 | 11.00928 | 107.37318 | 9298 ft | 302 kts | 249° |
| 2026-04-21 15:56 | 11.00268 | 107.35282 | 9064 ft | 300 kts | 253° |
| 2026-04-21 15:56 | 10.99682 | 107.33257 | 8999 ft | 299 kts | 254° |
| 2026-04-21 15:56 | 10.99096 | 107.31215 | 9000 ft | 300 kts | 254° |
| 2026-04-21 15:56 | 10.98509 | 107.29183 | 9011 ft | 300 kts | 254° |
| 2026-04-21 15:57 | 10.97915 | 107.27145 | 9001 ft | 300 kts | 252° |
| 2026-04-21 15:57 | 10.97046 | 107.25226 | 8999 ft | 300 kts | 233° |
| 2026-04-21 15:57 | 10.95492 | 107.23856 | 9002 ft | 297 kts | 205° |
| 2026-04-21 15:57 | 10.93511 | 107.23395 | 9002 ft | 294 kts | 178° |
| 2026-04-21 15:58 | 10.91466 | 107.23574 | 8999 ft | 295 kts | 171° |
| 2026-04-21 15:58 | 10.89433 | 107.23882 | 8998 ft | 295 kts | 170° |
| 2026-04-21 15:58 | 10.87399 | 107.24178 | 8999 ft | 296 kts | 174° |
| 2026-04-21 15:58 | 10.85359 | 107.24114 | 9002 ft | 297 kts | 186° |
| 2026-04-21 15:59 | 10.83318 | 107.23801 | 9001 ft | 296 kts | 188° |
| 2026-04-21 15:59 | 10.81283 | 107.23438 | 9002 ft | 295 kts | 189° |
| 2026-04-21 15:59 | 10.79245 | 107.23070 | 9003 ft | 297 kts | 188° |
| 2026-04-21 15:59 | 10.77281 | 107.22554 | 8968 ft | 288 kts | 201° |
| 2026-04-21 16:00 | 10.75592 | 107.21586 | 8714 ft | 277 kts | 219° |
| 2026-04-21 16:00 | 10.74357 | 107.20105 | 8298 ft | 275 kts | 242° |
| 2026-04-21 16:00 | 10.73819 | 107.18262 | 7786 ft | 271 kts | 268° |
| 2026-04-21 16:00 | 10.74109 | 107.16401 | 7295 ft | 266 kts | 292° |
| 2026-04-21 16:01 | 10.74880 | 107.14703 | 6860 ft | 263 kts | 298° |
| 2026-04-21 16:01 | 10.75727 | 107.13052 | 6420 ft | 264 kts | 299° |
| 2026-04-21 16:01 | 10.76575 | 107.11405 | 5945 ft | 260 kts | 299° |
| 2026-04-21 16:01 | 10.77402 | 107.09780 | 5452 ft | 259 kts | 298° |
| 2026-04-21 16:02 | 10.78222 | 107.08151 | 5056 ft | 263 kts | 298° |
| 2026-04-21 16:02 | 10.79052 | 107.06500 | 4759 ft | 261 kts | 298° |
| 2026-04-21 16:02 | 10.79878 | 107.04850 | 4386 ft | 263 kts | 298° |
| 2026-04-21 16:02 | 10.80702 | 107.03202 | 4124 ft | 260 kts | 297° |
| 2026-04-21 16:03 | 10.81510 | 107.01571 | 4005 ft | 257 kts | 297° |
| 2026-04-21 16:03 | 10.82317 | 106.99947 | 3925 ft | 257 kts | 297° |
| 2026-04-21 16:03 | 10.83128 | 106.98320 | 3602 ft | 258 kts | 297° |
| 2026-04-21 16:03 | 10.83934 | 106.96716 | 3572 ft | 258 kts | 297° |
| 2026-04-21 16:04 | 10.84751 | 106.95079 | 3561 ft | 255 kts | 296° |
| 2026-04-21 16:04 | 10.85540 | 106.93480 | 3575 ft | 257 kts | 296° |
| 2026-04-21 16:04 | 10.86341 | 106.91859 | 3561 ft | 256 kts | 296° |
| 2026-04-21 16:04 | 10.87018 | 106.90186 | 3563 ft | 256 kts | 284° |
| 2026-04-21 16:05 | 10.87382 | 106.88416 | 3502 ft | 255 kts | 278° |
| 2026-04-21 16:05 | 10.87630 | 106.86629 | 3374 ft | 255 kts | 276° |
| 2026-04-21 16:05 | 10.87847 | 106.84835 | 3235 ft | 257 kts | 275° |
| 2026-04-21 16:05 | 10.88058 | 106.83052 | 3158 ft | 244 kts | 274° |
| 2026-04-21 16:06 | 10.88076 | 106.81415 | 3048 ft | 223 kts | 258° |
| 2026-04-21 16:06 | 10.87656 | 106.79957 | 2789 ft | 209 kts | 244° |
| 2026-04-21 16:06 | 10.87108 | 106.78638 | 2500 ft | 200 kts | 244° |
| 2026-04-21 16:06 | 10.86625 | 106.77345 | 2227 ft | 190 kts | 244° |
| 2026-04-21 16:07 | 10.86177 | 106.76128 | 1974 ft | 178 kts | 243° |
| 2026-04-21 16:07 | 10.85745 | 106.74985 | 1747 ft | 168 kts | 243° |
| 2026-04-21 16:07 | 10.85339 | 106.73904 | 1553 ft | 160 kts | 244° |
| 2026-04-21 16:07 | 10.84952 | 106.72878 | 1347 ft | 151 kts | 243° |
| 2026-04-21 16:08 | 10.84224 | 106.70940 | 966 ft | 146 kts | 245° |
| 2026-04-21 16:08 | 10.83867 | 106.69990 | 792 ft | 144 kts | 246° |
| 2026-04-21 16:08 | 10.83511 | 106.69042 | 630 ft | 142 kts | 246° |
| 2026-04-21 16:09 | 10.83160 | 106.68106 | 425 ft | 141 kts | 245° |
| 2026-04-21 16:09 | 10.82810 | 106.67174 | 262 ft | 141 kts | 245° |
| 2026-04-21 16:09 | 10.82460 | 106.66245 | 67 ft | 141 kts | 246° |
| 2026-04-21 16:09 | 10.82137 | 106.65402 | 41 ft | 97 kts | 249° |
| 2026-04-21 16:10 | 10.81983 | 106.64993 | 38 ft | 47 kts | 248° |
| 2026-04-21 16:10 | 10.81873 | 106.64728 | 40 ft | 37 kts | 241° |
| 2026-04-21 16:10 | 10.81733 | 106.64585 | 43 ft | 21 kts | 218° |
| 2026-04-21 16:10 | 10.81716 | 106.64570 | 43 ft | 0 kts | 219° |
| 2026-04-21 16:11 | 10.81715 | 106.64570 | 43 ft | 1 kts | 219° |
| 2026-04-21 16:11 | 10.81686 | 106.64546 | 43 ft | 10 kts | 219° |
| 2026-04-21 16:12 | 10.81639 | 106.64504 | 41 ft | 17 kts | 223° |
| 2026-04-21 16:12 | 10.81561 | 106.64341 | 40 ft | 20 kts | 245° |
| 2026-04-21 16:12 | 10.81449 | 106.64325 | 41 ft | 18 kts | 157° |
| 2026-04-21 16:12 | 10.81336 | 106.64370 | 41 ft | 18 kts | 159° |
| 2026-04-21 16:13 | 10.81245 | 106.64434 | 40 ft | 14 kts | 103° |
| 2026-04-21 16:13 | 10.81222 | 106.64513 | 43 ft | 11 kts | 104° |
| 2026-04-21 16:13 | 10.81208 | 106.64589 | 44 ft | 11 kts | 97° |
| 2026-04-21 16:13 | 10.81221 | 106.64678 | 42 ft | 14 kts | 70° |
| 2026-04-21 16:14 | 10.81261 | 106.64779 | 42 ft | 16 kts | 69° |
| 2026-04-21 16:14 | 10.81301 | 106.64891 | 42 ft | 18 kts | 70° |
| 2026-04-21 16:14 | 10.81344 | 106.65008 | 42 ft | 14 kts | 68° |
| 2026-04-21 16:14 | 10.81384 | 106.65110 | 41 ft | 17 kts | 69° |
| 2026-04-21 16:15 | 10.81408 | 106.65173 | 41 ft | 14 kts | 69° |
| 2026-04-21 16:15 | 10.81445 | 106.65272 | 41 ft | 16 kts | 69° |
| 2026-04-21 16:15 | 10.81486 | 106.65383 | 41 ft | 18 kts | 70° |
| 2026-04-21 16:15 | 10.81533 | 106.65507 | 40 ft | 20 kts | 69° |
| 2026-04-21 16:16 | 10.81584 | 106.65642 | 40 ft | 21 kts | 69° |
| 2026-04-21 16:16 | 10.81638 | 106.65785 | 40 ft | 18 kts | 69° |
| 2026-04-21 16:16 | 10.81677 | 106.65890 | 40 ft | 16 kts | 68° |
| 2026-04-21 16:16 | 10.81720 | 106.66000 | 41 ft | 15 kts | 73° |
| 2026-04-21 16:17 | 10.81672 | 106.66050 | 41 ft | 10 kts | 178° |
| 2026-04-21 16:17 | 10.81594 | 106.66046 | 41 ft | 12 kts | 186° |
| 2026-04-21 16:17 | 10.81534 | 106.66061 | 40 ft | 7 kts | 128° |
| 2026-04-21 16:17 | 10.81525 | 106.66103 | 41 ft | 6 kts | 95° |
| 2026-04-21 16:18 | 10.81523 | 106.66131 | 41 ft | 0 kts | 95° |